Time,TemperatureF,DewpointF,PressureIn,WindDirection,WindDirectionDegrees,WindSpeedMPH,WindSpeedGustMPH,Humidity,HourlyPrecipIn,Conditions,Clouds,dailyrainin,SolarRadiationWatts/m^2,SoftwareType,DateUTC
2013-02-03 00:21:00,21.7,20.0,30.26,East,80,0.0,1.0,92,0.00,,,0.00,0,weatherlink.com 1.10,2013-02-03 07:21:00,
2013-02-03 01:06:00,17.7,16.0,30.24,ENE,78,0.0,0.0,92,0.00,,,0.00,0,weatherlink.com 1.10,2013-02-03 08:06:00,
2013-02-03 01:36:00,17.9,16.0,30.22,ENE,78,0.0,0.0,93,0.00,,,0.00,0,weatherlink.com 1.10,2013-02-03 08:36:00,
2013-02-03 01:51:00,17.5,16.0,30.23,ENE,78,1.0,2.0,92,0.00,,,0.00,0,weatherlink.com 1.10,2013-02-03 08:51:00,
2013-02-03 03:07:00,16.9,15.0,30.19,NE,53,0.0,0.0,92,0.00,,,0.00,0,weatherlink.com 1.10,2013-02-03 10:07:00,
2013-02-03 03:36:00,15.7,14.0,30.18,NE,53,0.0,0.0,91,0.00,,,0.00,0,weatherlink.com 1.10,2013-02-03 10:36:00,
2013-02-03 04:07:00,15.9,14.0,30.17,ENE,70,1.0,3.0,93,0.00,,,0.00,0,weatherlink.com 1.10,2013-02-03 11:07:00,
2013-02-03 04:21:00,15.7,14.0,30.17,ENE,70,0.0,2.0,92,0.00,,,0.00,0,weatherlink.com 1.10,2013-02-03 11:21:00,
2013-02-03 04:36:00,15.8,14.0,30.16,SE,140,1.0,3.0,92,0.00,,,0.00,0,weatherlink.com 1.10,2013-02-03 11:36:00,
2013-02-03 04:51:00,14.1,12.0,30.16,SE,136,2.0,5.0,92,0.00,,,0.00,0,weatherlink.com 1.10,2013-02-03 11:51:00,
2013-02-03 05:06:00,14.5,13.0,30.15,ESE,110,2.0,4.0,93,0.00,,,0.00,0,weatherlink.com 1.10,2013-02-03 12:06:00,
2013-02-03 05:21:00,14.5,13.0,30.14,ESE,111,1.0,2.0,93,0.00,,,0.00,0,weatherlink.com 1.10,2013-02-03 12:21:00,
2013-02-03 05:36:00,14.0,12.0,30.14,ESE,111,0.0,0.0,92,0.00,,,0.00,0,weatherlink.com 1.10,2013-02-03 12:36:00,
2013-02-03 05:51:00,14.1,13.0,30.13,ESE,111,2.0,3.0,93,0.00,,,0.00,0,weatherlink.com 1.10,2013-02-03 12:51:00,
2013-02-03 06:07:00,14.4,13.0,30.13,East,85,5.0,5.0,93,0.00,,,0.00,0,weatherlink.com 1.10,2013-02-03 13:07:00,
2013-02-03 06:21:00,-999.0,-99.9,30.12,North,-999,-999.0,-999.0,-999,0.00,,,0.00,,weatherlink.com 1.10,2013-02-03 13:21:00,
2013-02-03 06:37:00,-999.0,-99.9,30.11,North,-999,-999.0,-999.0,-999,0.00,,,0.00,,weatherlink.com 1.10,2013-02-03 13:37:00,
2013-02-03 06:51:00,-999.0,-99.9,30.11,North,-999,-999.0,-999.0,-999,0.00,,,0.00,,weatherlink.com 1.10,2013-02-03 13:51:00,
2013-02-03 07:07:00,-999.0,-99.9,30.11,North,-999,-999.0,-999.0,-999,0.00,,,0.00,,weatherlink.com 1.10,2013-02-03 14:07:00,
2013-02-03 07:21:00,-999.0,-99.9,30.10,North,-999,-999.0,-999.0,-999,0.00,,,0.00,,weatherlink.com 1.10,2013-02-03 14:21:00,
2013-02-03 07:37:00,-999.0,-99.9,30.10,North,-999,-999.0,-999.0,-999,0.00,,,0.00,,weatherlink.com 1.10,2013-02-03 14:37:00,
2013-02-03 07:52:00,-999.0,-99.9,30.10,North,-999,-999.0,-999.0,-999,0.00,,,0.00,,weatherlink.com 1.10,2013-02-03 14:52:00,
2013-02-03 08:07:00,-999.0,-99.9,30.09,North,-999,-999.0,-999.0,-999,0.00,,,0.00,,weatherlink.com 1.10,2013-02-03 15:07:00,
2013-02-03 08:22:00,15.6,14.0,30.08,SE,132,3.0,6.0,92,0.00,,,0.00,37,weatherlink.com 1.10,2013-02-03 15:22:00,
2013-02-03 08:37:00,15.7,14.0,30.09,ESE,107,3.0,5.0,92,0.00,,,0.00,46,weatherlink.com 1.10,2013-02-03 15:37:00,
2013-02-03 08:53:00,16.0,14.0,30.10,SE,125,1.0,4.0,92,0.00,,,0.00,63,weatherlink.com 1.10,2013-02-03 15:53:00,
2013-02-03 09:07:00,16.4,15.0,30.10,East,100,2.0,5.0,92,0.00,,,0.00,100,weatherlink.com 1.10,2013-02-03 16:07:00,
2013-02-03 09:22:00,17.1,15.0,30.10,SE,132,3.0,6.0,92,0.00,,,0.00,149,weatherlink.com 1.10,2013-02-03 16:22:00,
2013-02-03 09:38:00,17.9,16.0,30.10,SE,135,3.0,5.0,92,0.00,,,0.00,193,weatherlink.com 1.10,2013-02-03 16:38:00,
2013-02-03 09:52:00,18.2,16.0,30.10,SE,125,5.0,7.0,92,0.00,,,0.00,294,weatherlink.com 1.10,2013-02-03 16:52:00,
2013-02-03 10:08:00,19.3,18.0,30.11,SE,142,5.0,6.0,93,0.00,,,0.00,432,weatherlink.com 1.10,2013-02-03 17:08:00,
2013-02-03 10:22:00,20.1,18.0,30.11,SE,135,6.0,9.0,93,0.00,,,0.00,501,weatherlink.com 1.10,2013-02-03 17:22:00,
2013-02-03 10:38:00,21.3,20.0,30.11,SE,126,8.0,9.0,93,0.00,,,0.00,320,weatherlink.com 1.10,2013-02-03 17:38:00,
2013-02-03 10:53:00,22.2,21.0,30.11,SE,124,7.0,8.0,93,0.00,,,0.00,441,weatherlink.com 1.10,2013-02-03 17:53:00,
2013-02-03 11:08:00,22.8,21.0,30.11,SE,139,5.0,9.0,92,0.00,,,0.00,415,weatherlink.com 1.10,2013-02-03 18:08:00,
2013-02-03 11:23:00,22.4,20.0,30.11,ESE,123,8.0,10.0,91,0.00,,,0.00,420,weatherlink.com 1.10,2013-02-03 18:23:00,
2013-02-03 11:38:00,23.1,21.0,30.12,SE,136,4.0,7.0,90,0.00,,,0.00,497,weatherlink.com 1.10,2013-02-03 18:38:00,
2013-02-03 11:53:00,23.3,21.0,30.11,SE,135,3.0,7.0,89,0.00,,,0.00,369,weatherlink.com 1.10,2013-02-03 18:53:00,
2013-02-03 12:08:00,23.7,21.0,30.11,ENE,73,3.0,6.0,88,0.00,,,0.00,359,weatherlink.com 1.10,2013-02-03 19:08:00,
2013-02-03 12:23:00,24.3,21.0,30.12,ENE,71,3.0,5.0,87,0.00,,,0.00,350,weatherlink.com 1.10,2013-02-03 19:23:00,
2013-02-03 12:39:00,25.6,22.0,30.13,ENE,69,0.0,2.0,85,0.00,,,0.00,308,weatherlink.com 1.10,2013-02-03 19:39:00,
2013-02-03 12:53:00,25.3,21.0,30.13,SE,128,2.0,4.0,85,0.00,,,0.00,410,weatherlink.com 1.10,2013-02-03 19:53:00,
2013-02-03 13:08:00,25.5,22.0,30.13,SE,142,2.0,4.0,85,0.00,,,0.00,371,weatherlink.com 1.10,2013-02-03 20:08:00,
2013-02-03 13:24:00,26.2,22.0,30.13,SE,131,2.0,3.0,84,0.00,,,0.00,297,weatherlink.com 1.10,2013-02-03 20:24:00,
2013-02-03 13:38:00,26.5,22.0,30.14,East,90,2.0,3.0,84,0.00,,,0.00,378,weatherlink.com 1.10,2013-02-03 20:38:00,
2013-02-03 13:53:00,26.0,22.0,30.13,SE,135,4.0,4.0,84,0.00,,,0.00,274,weatherlink.com 1.10,2013-02-03 20:53:00,
2013-02-03 14:09:00,26.2,22.0,30.15,SE,136,0.0,4.0,85,0.00,,,0.00,237,weatherlink.com 1.10,2013-02-03 21:09:00,
2013-02-03 14:23:00,27.3,22.0,30.14,SE,136,0.0,2.0,81,0.00,,,0.00,155,weatherlink.com 1.10,2013-02-03 21:23:00,
2013-02-03 14:39:00,26.7,22.0,30.15,SE,137,0.0,1.0,81,0.00,,,0.00,97,weatherlink.com 1.10,2013-02-03 21:39:00,
2013-02-03 14:54:00,26.5,22.0,30.16,SE,137,0.0,2.0,82,0.00,,,0.00,311,weatherlink.com 1.10,2013-02-03 21:54:00,
2013-02-03 15:09:00,27.9,23.0,30.16,SE,137,1.0,2.0,81,0.00,,,0.00,265,weatherlink.com 1.10,2013-02-03 22:09:00,
2013-02-03 15:23:00,28.9,23.0,30.17,ENE,60,0.0,2.0,79,0.00,,,0.00,227,weatherlink.com 1.10,2013-02-03 22:23:00,
2013-02-03 15:39:00,29.8,23.0,30.16,SE,126,0.0,2.0,75,0.00,,,0.00,188,weatherlink.com 1.10,2013-02-03 22:39:00,
2013-02-03 15:54:00,29.3,23.0,30.16,SSE,165,1.0,2.0,78,0.00,,,0.00,153,weatherlink.com 1.10,2013-02-03 22:54:00,
2013-02-03 16:08:00,28.8,23.0,30.17,West,270,1.0,4.0,78,0.00,,,0.00,139,weatherlink.com 1.10,2013-02-03 23:08:00,
2013-02-03 16:24:00,27.7,22.0,30.17,SE,141,2.0,3.0,78,0.00,,,0.00,79,weatherlink.com 1.10,2013-02-03 23:24:00,
2013-02-03 16:39:00,25.7,21.0,30.18,SE,141,0.0,2.0,83,0.00,,,0.00,39,weatherlink.com 1.10,2013-02-03 23:39:00,
2013-02-03 16:55:00,24.0,19.0,30.18,SE,144,1.0,3.0,82,0.00,,,0.00,18,weatherlink.com 1.10,2013-02-03 23:55:00,
2013-02-03 17:09:00,24.5,22.0,30.18,SE,144,0.0,0.0,88,0.00,,,0.00,0,weatherlink.com 1.10,2013-02-04 00:09:00,
2013-02-03 17:24:00,24.8,20.0,30.19,SE,144,0.0,0.0,83,0.00,,,0.00,0,weatherlink.com 1.10,2013-02-04 00:24:00,
2013-02-03 17:40:00,21.9,18.0,30.19,ESE,112,1.0,4.0,84,0.00,,,0.00,0,weatherlink.com 1.10,2013-02-04 00:40:00,
2013-02-03 17:54:00,19.9,17.0,30.20,SE,126,2.0,5.0,88,0.00,,,0.00,0,weatherlink.com 1.10,2013-02-04 00:54:00,
2013-02-03 18:10:00,19.8,17.0,30.20,East,101,5.0,5.0,89,0.00,,,0.00,0,weatherlink.com 1.10,2013-02-04 01:10:00,
2013-02-03 18:24:00,18.9,16.0,30.21,ESE,108,2.0,6.0,89,0.00,,,0.00,0,weatherlink.com 1.10,2013-02-04 01:24:00,
2013-02-03 18:40:00,18.7,16.0,30.21,ESE,103,4.0,7.0,89,0.00,,,0.00,0,weatherlink.com 1.10,2013-02-04 01:40:00,
2013-02-03 18:55:00,18.0,16.0,30.22,East,92,3.0,7.0,90,0.00,,,0.00,0,weatherlink.com 1.10,2013-02-04 01:55:00,
2013-02-03 19:10:00,18.7,16.0,30.23,East,88,5.0,8.0,90,0.00,,,0.00,0,weatherlink.com 1.10,2013-02-04 02:10:00,
2013-02-03 19:25:00,18.1,16.0,30.23,East,91,5.0,8.0,90,0.00,,,0.00,0,weatherlink.com 1.10,2013-02-04 02:25:00,
2013-02-03 19:40:00,17.3,15.0,30.23,East,101,1.0,5.0,89,0.00,,,0.00,0,weatherlink.com 1.10,2013-02-04 02:40:00,
2013-02-03 19:55:00,16.8,14.0,30.22,East,101,0.0,0.0,90,0.00,,,0.00,0,weatherlink.com 1.10,2013-02-04 02:55:00,
2013-02-03 20:10:00,15.8,13.0,30.22,East,101,0.0,1.0,90,0.00,,,0.00,0,weatherlink.com 1.10,2013-02-04 03:10:00,
2013-02-03 20:25:00,15.7,14.0,30.21,East,101,0.0,0.0,92,0.00,,,0.00,0,weatherlink.com 1.10,2013-02-04 03:25:00,
2013-02-03 20:40:00,14.5,12.0,30.21,East,101,0.0,1.0,91,0.00,,,0.00,0,weatherlink.com 1.10,2013-02-04 03:40:00,
2013-02-03 20:55:00,14.7,13.0,30.21,East,101,0.0,0.0,92,0.00,,,0.00,0,weatherlink.com 1.10,2013-02-04 03:55:00,
2013-02-03 21:10:00,13.6,12.0,30.22,WSW,257,1.0,4.0,92,0.00,,,0.00,0,weatherlink.com 1.10,2013-02-04 04:10:00,
2013-02-03 21:25:00,12.2,10.0,30.22,WSW,257,0.0,1.0,90,0.00,,,0.00,0,weatherlink.com 1.10,2013-02-04 04:25:00,
2013-02-03 21:40:00,11.5,9.0,30.22,WSW,257,0.0,0.0,91,0.00,,,0.00,0,weatherlink.com 1.10,2013-02-04 04:40:00,
2013-02-03 21:55:00,11.7,10.0,30.21,WSW,257,1.0,2.0,91,0.00,,,0.00,0,weatherlink.com 1.10,2013-02-04 04:55:00,
2013-02-03 22:10:00,10.4,8.0,30.21,East,96,2.0,2.0,88,0.00,,,0.00,0,weatherlink.com 1.10,2013-02-04 05:10:00,
2013-02-03 22:25:00,10.4,8.0,30.21,East,96,1.0,2.0,91,0.00,,,0.00,0,weatherlink.com 1.10,2013-02-04 05:25:00,
2013-02-03 22:41:00,12.2,11.0,30.21,ENE,72,2.0,3.0,93,0.00,,,0.00,0,weatherlink.com 1.10,2013-02-04 05:41:00,
2013-02-03 22:56:00,13.3,12.0,30.21,East,95,0.0,4.0,93,0.00,,,0.00,0,weatherlink.com 1.10,2013-02-04 05:56:00,
2013-02-03 23:11:00,13.8,12.0,30.21,East,82,0.0,2.0,92,0.00,,,0.00,0,weatherlink.com 1.10,2013-02-04 06:11:00,
2013-02-03 23:26:00,13.7,12.0,30.22,East,84,0.0,1.0,92,0.00,,,0.00,0,weatherlink.com 1.10,2013-02-04 06:26:00,
2013-02-03 23:40:00,13.6,12.0,30.21,East,84,0.0,0.0,91,0.00,,,0.00,0,weatherlink.com 1.10,2013-02-04 06:40:00,
2013-02-03 23:56:00,13.7,12.0,30.22,East,83,1.0,5.0,92,0.00,,,0.00,0,weatherlink.com 1.10,2013-02-04 06:56:00,